createdAt,value
2023-08-14T00:01:46.815Z,65.18
2023-08-14T00:04:50.316Z,65.37
2023-08-14T00:07:53.525Z,65.55
2023-08-14T00:10:56.457Z,65.29
2023-08-14T00:13:59.353Z,65.15
2023-08-14T00:17:02.191Z,65.02
2023-08-14T00:20:05.762Z,65.06
2023-08-14T00:23:09.170Z,65.11
2023-08-14T00:26:16.159Z,65.29
2023-08-14T00:29:18.991Z,65.38
2023-08-14T00:32:21.966Z,65.16
2023-08-14T00:35:24.889Z,65.21
2023-08-14T00:38:28.165Z,65.40
2023-08-14T00:41:32.191Z,65.27
2023-08-14T00:44:35.095Z,65.37
2023-08-14T00:47:38.854Z,65.35
2023-08-14T00:50:43.900Z,65.51
2023-08-14T00:53:47.170Z,65.61
2023-08-14T00:56:50.448Z,65.55
2023-08-14T00:59:53.530Z,65.61
2023-08-14T01:02:57.102Z,65.64
2023-08-14T01:06:00.673Z,65.98
2023-08-14T01:09:03.659Z,66.23
2023-08-14T01:12:16.393Z,66.31
2023-08-14T01:15:30.081Z,66.51
2023-08-14T01:18:35.070Z,66.61
2023-08-14T01:21:52.388Z,66.47
2023-08-14T01:25:28.403Z,67.02
2023-08-14T01:28:32.105Z,66.88
2023-08-14T01:31:35.034Z,66.72
2023-08-14T01:34:38.048Z,66.69
2023-08-14T01:37:56.038Z,66.88
2023-08-14T01:41:56.575Z,67.00
2023-08-14T01:45:03.449Z,67.39
2023-08-14T01:48:12.721Z,67.47
2023-08-14T01:51:17.764Z,67.58
2023-08-14T01:54:21.344Z,67.83
2023-08-14T01:57:24.202Z,67.86
2023-08-14T02:00:27.959Z,68.16
2023-08-14T02:03:31.468Z,67.91
2023-08-14T02:06:34.866Z,68.31
2023-08-14T02:09:38.234Z,68.38
2023-08-14T02:12:41.176Z,68.33
2023-08-14T02:15:47.482Z,68.61
2023-08-14T02:18:50.544Z,68.78
2023-08-14T02:21:53.649Z,68.79
2023-08-14T02:24:56.560Z,69.06
2023-08-14T02:27:59.452Z,69.27
2023-08-14T02:31:04.248Z,69.32
2023-08-14T02:34:07.281Z,69.24
2023-08-14T02:37:10.824Z,69.46
2023-08-14T02:40:13.739Z,69.66
2023-08-14T02:43:16.737Z,69.42
2023-08-14T02:46:19.654Z,69.68
2023-08-14T02:49:22.796Z,69.85
2023-08-14T02:52:25.607Z,70.04
2023-08-14T02:55:28.561Z,70.07
2023-08-14T02:58:32.687Z,70.13
2023-08-14T03:01:35.655Z,70.03
2023-08-14T03:04:38.583Z,70.11
2023-08-14T03:07:41.534Z,70.03
2023-08-14T03:10:44.445Z,70.14
2023-08-14T03:13:47.401Z,70.34
2023-08-14T03:16:50.516Z,70.20
2023-08-14T03:19:53.591Z,70.17
2023-08-14T03:22:56.537Z,70.14
2023-08-14T03:25:59.475Z,70.33
2023-08-14T03:29:02.418Z,70.13
2023-08-14T03:32:05.645Z,70.28
2023-08-14T03:35:08.669Z,70.35
2023-08-14T03:38:11.515Z,70.28
2023-08-14T03:41:14.480Z,70.34
2023-08-14T03:44:17.404Z,70.57
2023-08-14T03:47:20.407Z,70.30
2023-08-14T03:50:23.587Z,70.35
2023-08-14T03:53:26.522Z,70.49
2023-08-14T03:56:29.784Z,70.15
2023-08-14T03:59:32.757Z,69.71
2023-08-14T04:02:35.699Z,69.16
2023-08-14T04:05:42.257Z,68.74
2023-08-14T04:08:45.123Z,68.28
2023-08-14T04:11:48.066Z,67.90
2023-08-14T04:14:51.519Z,67.34
2023-08-14T04:17:54.553Z,66.29
2023-08-14T04:20:58.362Z,65.21
2023-08-14T04:24:01.201Z,64.96
2023-08-14T04:27:04.343Z,63.05
2023-08-14T04:30:07.691Z,61.96
2023-08-14T04:33:10.654Z,60.19
2023-08-14T04:36:13.640Z,58.94
2023-08-14T04:39:16.730Z,57.19
2023-08-14T04:42:19.848Z,56.57
2023-08-14T04:45:23.215Z,56.01
2023-08-14T04:48:26.171Z,56.76
2023-08-14T04:51:29.517Z,56.56
2023-08-14T04:54:33.299Z,56.91
2023-08-14T04:57:36.214Z,56.62
2023-08-14T05:00:39.854Z,56.33
2023-08-14T05:03:42.754Z,56.35
2023-08-14T05:06:46.092Z,56.17
2023-08-14T05:09:49.663Z,55.68
2023-08-14T05:12:52.717Z,55.32
2023-08-14T05:16:07.064Z,55.42
2023-08-14T05:19:11.061Z,55.58
2023-08-14T05:22:13.995Z,55.28
2023-08-14T05:25:16.820Z,55.12
2023-08-14T05:28:19.794Z,54.45
2023-08-14T05:31:22.732Z,54.26
2023-08-14T05:34:25.586Z,54.63
2023-08-14T05:37:28.461Z,54.15
2023-08-14T05:40:31.377Z,53.88
2023-08-14T05:43:34.269Z,53.56
2023-08-14T05:46:37.147Z,52.87
2023-08-14T05:49:40.243Z,52.58
2023-08-14T05:52:44.354Z,51.27
2023-08-14T05:55:47.297Z,50.84
2023-08-14T05:58:50.196Z,50.48
2023-08-14T06:01:55.638Z,50.11
2023-08-14T06:05:00.471Z,50.32
2023-08-14T06:08:05.087Z,50.21
2023-08-14T06:11:08.014Z,50.18
2023-08-14T06:14:10.892Z,50.45
2023-08-14T06:17:13.799Z,49.66
2023-08-14T06:20:16.781Z,48.85
2023-08-14T06:23:20.383Z,49.21
2023-08-14T06:26:23.534Z,49.26
2023-08-14T06:29:26.387Z,48.92
2023-08-14T06:32:29.321Z,49.31
2023-08-14T06:35:32.211Z,48.90
2023-08-14T06:38:35.491Z,48.79
2023-08-14T06:41:38.405Z,48.40
2023-08-14T06:44:41.343Z,48.95
2023-08-14T06:47:46.307Z,47.41
2023-08-14T06:50:49.332Z,47.49
2023-08-14T06:53:54.019Z,47.77
2023-08-14T06:56:58.583Z,47.29
2023-08-14T07:00:07.306Z,46.78
2023-08-14T07:03:10.364Z,46.76
2023-08-14T07:06:13.336Z,45.63
2023-08-14T07:09:17.986Z,46.21
2023-08-14T07:12:21.165Z,46.38
2023-08-14T07:15:24.338Z,46.07
2023-08-14T07:18:27.158Z,45.73
2023-08-14T07:21:30.176Z,45.13
2023-08-14T07:24:33.125Z,45.75
2023-08-14T07:27:35.979Z,44.51
2023-08-14T07:30:40.007Z,44.15
2023-08-14T07:33:42.882Z,44.51
2023-08-14T07:36:45.734Z,44.65
2023-08-14T07:39:48.807Z,44.32
2023-08-14T07:42:51.767Z,44.10
2023-08-14T07:45:55.609Z,44.26
2023-08-14T07:48:58.644Z,44.85
2023-08-14T07:52:01.622Z,44.24
2023-08-14T07:55:05.021Z,45.30
2023-08-14T07:58:07.898Z,44.63
2023-08-14T08:01:11.191Z,44.75
2023-08-14T08:04:26.500Z,44.87
2023-08-14T08:10:36.916Z,43.80
2023-08-14T08:13:40.078Z,43.45
2023-08-14T08:16:42.885Z,44.67
2023-08-14T08:19:47.773Z,44.03
2023-08-14T08:22:51.195Z,43.86
2023-08-14T08:25:54.216Z,44.20
2023-08-14T08:28:57.197Z,43.69
2023-08-14T08:32:00.119Z,42.47
2023-08-14T08:35:03.092Z,43.65
2023-08-14T08:38:06.159Z,43.74
2023-08-14T08:41:09.200Z,43.84
2023-08-14T08:44:22.705Z,43.59
2023-08-14T08:47:30.452Z,44.69
2023-08-14T08:50:34.341Z,44.45
2023-08-14T08:53:37.460Z,44.91
2023-08-14T08:56:41.595Z,44.35
2023-08-14T08:59:44.942Z,44.24
2023-08-14T09:02:47.784Z,44.53
2023-08-14T09:05:52.621Z,44.46
2023-08-14T09:08:55.342Z,44.29
2023-08-14T09:11:58.158Z,44.00
2023-08-14T09:15:09.527Z,44.27
2023-08-14T09:18:12.392Z,44.14
2023-08-14T09:21:16.702Z,44.11
2023-08-14T09:24:20.186Z,43.53
2023-08-14T09:27:24.409Z,44.27
2023-08-14T09:30:28.010Z,44.08
2023-08-14T09:33:30.975Z,43.12
2023-08-14T09:36:37.728Z,43.55
2023-08-14T09:39:40.713Z,43.63
2023-08-14T09:42:45.481Z,43.98
2023-08-14T09:45:48.551Z,43.72
2023-08-14T09:48:51.544Z,43.64
2023-08-14T09:51:58.765Z,43.58
2023-08-14T09:55:10.896Z,42.77
2023-08-14T09:58:14.688Z,43.25
2023-08-14T10:01:19.545Z,44.21
2023-08-14T10:04:23.798Z,43.47
2023-08-14T10:07:27.625Z,43.45
2023-08-14T10:10:32.348Z,42.55
2023-08-14T10:13:43.231Z,42.49
2023-08-14T10:16:49.740Z,43.51
2023-08-14T10:19:54.707Z,43.48
2023-08-14T10:22:58.703Z,42.46
2023-08-14T10:26:02.525Z,42.76
2023-08-14T10:29:06.901Z,42.50
2023-08-14T10:32:10.664Z,42.77
2023-08-14T10:35:13.669Z,42.79
2023-08-14T10:38:18.273Z,41.25
2023-08-14T10:41:34.389Z,41.83
2023-08-14T10:44:37.441Z,42.84
2023-08-14T10:47:40.451Z,42.50
2023-08-14T10:50:43.369Z,42.55
2023-08-14T10:53:46.619Z,42.96
2023-08-14T10:57:00.485Z,42.09
2023-08-14T11:00:04.595Z,41.39
2023-08-14T11:03:09.670Z,41.23
2023-08-14T11:06:22.974Z,41.46
2023-08-14T11:09:33.728Z,41.03
2023-08-14T11:12:37.231Z,41.30
2023-08-14T11:15:41.199Z,41.25
2023-08-14T11:18:44.368Z,41.16
2023-08-14T11:21:49.543Z,40.76
2023-08-14T11:24:53.148Z,40.87
2023-08-14T11:27:56.969Z,40.98
2023-08-14T11:30:59.855Z,41.01
2023-08-14T11:34:03.032Z,40.41
2023-08-14T11:37:07.833Z,40.90
2023-08-14T11:40:14.304Z,41.07
2023-08-14T11:43:17.256Z,40.52
2023-08-14T11:46:20.376Z,40.47
2023-08-14T11:49:24.344Z,40.77
2023-08-14T11:52:28.181Z,40.06
2023-08-14T11:55:31.232Z,40.15
2023-08-14T11:58:38.191Z,41.16
2023-08-14T12:01:42.618Z,40.04
2023-08-14T12:04:45.612Z,40.79
2023-08-14T12:07:48.556Z,40.02
2023-08-14T12:10:51.452Z,39.53
2023-08-14T12:13:54.384Z,39.66
2023-08-14T12:16:58.875Z,39.55
2023-08-14T12:20:06.857Z,38.73
2023-08-14T12:23:14.457Z,39.32
2023-08-14T12:26:17.333Z,39.18
2023-08-14T12:29:22.096Z,39.25
2023-08-14T12:32:25.676Z,39.18
2023-08-14T12:35:28.661Z,38.91
2023-08-14T12:38:31.511Z,39.20
2023-08-14T12:41:34.498Z,39.36
2023-08-14T12:44:37.410Z,38.83
2023-08-14T12:47:40.359Z,38.79
2023-08-14T12:50:43.368Z,38.52
2023-08-14T12:53:46.170Z,38.43
2023-08-14T12:56:49.141Z,38.27
2023-08-14T12:59:52.040Z,38.40
2023-08-14T13:02:54.882Z,37.90
2023-08-14T13:05:58.273Z,39.06
2023-08-14T13:09:02.950Z,38.64
2023-08-14T13:12:06.632Z,38.07
2023-08-14T13:15:09.587Z,37.91
2023-08-14T13:18:12.373Z,37.61
2023-08-14T13:21:15.328Z,37.76
2023-08-14T13:24:18.203Z,37.68
2023-08-14T13:27:21.481Z,38.23
2023-08-14T13:30:24.600Z,36.75
2023-08-14T13:33:27.462Z,37.14
2023-08-14T13:36:30.437Z,37.30
2023-08-14T13:39:33.477Z,37.58
2023-08-14T13:42:36.319Z,37.19
2023-08-14T13:45:39.102Z,37.45
2023-08-14T13:48:42.174Z,37.30
2023-08-14T13:51:46.055Z,36.89
2023-08-14T13:54:51.289Z,37.02
2023-08-14T13:57:56.829Z,37.14
2023-08-14T14:01:02.943Z,37.58
2023-08-14T14:04:06.987Z,37.22
2023-08-14T14:07:12.474Z,37.36
2023-08-14T14:10:15.518Z,37.09
2023-08-14T14:13:18.647Z,37.50
2023-08-14T14:16:23.471Z,37.57
2023-08-14T14:19:27.690Z,38.07
2023-08-14T14:22:30.638Z,37.47
2023-08-14T14:25:33.484Z,37.02
2023-08-14T14:28:36.349Z,36.59
2023-08-14T14:31:39.275Z,37.56
2023-08-14T14:34:42.294Z,37.43
2023-08-14T14:37:46.788Z,37.81
2023-08-14T14:40:49.650Z,37.37
2023-08-14T14:43:52.524Z,37.51
2023-08-14T14:46:55.732Z,37.12
2023-08-14T14:49:58.709Z,37.40
2023-08-14T14:53:01.564Z,37.01
2023-08-14T14:56:06.059Z,37.28
2023-08-14T14:59:08.892Z,37.60
2023-08-14T15:02:23.573Z,36.96
2023-08-14T15:05:32.079Z,37.25
2023-08-14T15:08:34.931Z,37.25
2023-08-14T15:11:37.885Z,37.48
2023-08-14T15:14:40.816Z,37.28
2023-08-14T15:17:44.863Z,37.20
2023-08-14T15:20:47.907Z,37.73
2023-08-14T15:23:50.747Z,38.01
2023-08-14T15:26:53.520Z,37.76
2023-08-14T15:29:56.429Z,38.18
2023-08-14T15:32:59.261Z,37.52
2023-08-14T15:36:02.192Z,37.65
2023-08-14T15:39:05.370Z,37.91
2023-08-14T15:42:08.276Z,37.71
2023-08-14T15:45:14.288Z,37.80
2023-08-14T15:48:17.631Z,37.97
2023-08-14T15:51:20.914Z,37.50
2023-08-14T15:54:23.733Z,37.52
2023-08-14T15:57:27.239Z,37.79
2023-08-14T16:00:30.111Z,37.98
2023-08-14T16:03:32.996Z,37.86
2023-08-14T16:06:35.869Z,38.55
2023-08-14T16:09:39.126Z,38.36
2023-08-14T16:12:42.028Z,38.54
2023-08-14T16:15:44.858Z,38.72
2023-08-14T16:18:47.717Z,38.94
2023-08-14T16:21:50.494Z,39.19
2023-08-14T16:24:53.334Z,39.43
2023-08-14T16:27:56.182Z,39.74
2023-08-14T16:30:59.164Z,39.53
2023-08-14T16:34:02.490Z,39.95
2023-08-14T16:37:05.529Z,40.41
2023-08-14T16:40:09.243Z,40.53
2023-08-14T16:43:12.975Z,40.62
2023-08-14T16:46:15.898Z,40.91
2023-08-14T16:49:18.776Z,41.22
2023-08-14T16:52:21.610Z,41.44
2023-08-14T16:55:24.754Z,41.81
2023-08-14T16:58:27.669Z,42.25
2023-08-14T17:01:30.487Z,42.68
2023-08-14T17:04:34.096Z,43.11
2023-08-14T17:07:37.049Z,43.54
2023-08-14T17:10:40.054Z,43.93
2023-08-14T17:13:43.055Z,43.95
2023-08-14T17:16:45.985Z,43.56
2023-08-14T17:19:48.836Z,43.17
2023-08-14T17:22:51.683Z,42.59
2023-08-14T17:25:55.256Z,42.32
2023-08-14T17:28:58.190Z,42.08
2023-08-14T17:32:01.166Z,42.36
2023-08-14T17:35:04.297Z,42.85
2023-08-14T17:38:07.126Z,43.47
2023-08-14T17:41:11.758Z,44.14
2023-08-14T17:44:14.886Z,44.73
2023-08-14T17:47:18.108Z,45.46
2023-08-14T17:50:21.327Z,46.26
2023-08-14T17:53:25.760Z,46.81
2023-08-14T17:56:28.999Z,47.34
2023-08-14T17:59:32.503Z,47.83
2023-08-14T18:02:35.618Z,48.79
2023-08-14T18:05:38.568Z,49.43
2023-08-14T18:08:41.481Z,49.97
2023-08-14T18:11:44.520Z,50.97
2023-08-14T18:14:47.810Z,52.39
2023-08-14T18:17:50.797Z,52.81
2023-08-14T18:20:54.002Z,53.56
2023-08-14T18:23:57.076Z,54.27
2023-08-14T18:27:00.039Z,54.99
2023-08-14T18:30:03.135Z,55.82
2023-08-14T18:33:06.151Z,56.32
2023-08-14T18:36:09.127Z,57.01
2023-08-14T18:39:11.993Z,57.46
2023-08-14T18:42:14.864Z,57.78
2023-08-14T18:45:17.811Z,58.20
2023-08-14T18:48:20.684Z,58.52
2023-08-14T18:51:23.665Z,58.63
2023-08-14T18:54:27.306Z,59.51
2023-08-14T18:57:30.196Z,60.41
2023-08-14T19:00:33.149Z,60.90
2023-08-14T19:03:36.084Z,61.39
2023-08-14T19:06:39.210Z,61.67
2023-08-14T19:09:48.525Z,62.24
2023-08-14T19:13:14.177Z,63.01
2023-08-14T19:16:17.242Z,64.42
2023-08-14T19:19:20.146Z,64.28
2023-08-14T19:22:23.895Z,64.44
2023-08-14T19:25:30.036Z,64.49
2023-08-14T19:28:50.105Z,64.90
2023-08-14T19:32:01.905Z,65.64
2023-08-14T19:35:05.951Z,65.53
2023-08-14T19:38:08.899Z,66.49
2023-08-14T19:41:11.853Z,66.13
2023-08-14T19:44:15.909Z,66.88
2023-08-14T19:47:19.044Z,66.70
2023-08-14T19:50:25.212Z,66.81
2023-08-14T19:53:28.208Z,66.92
2023-08-14T19:56:31.250Z,67.01
2023-08-14T19:59:34.225Z,67.24
2023-08-14T20:02:37.182Z,67.11
2023-08-14T20:05:46.020Z,67.15
2023-08-14T20:08:49.139Z,67.51
2023-08-14T20:11:52.038Z,67.46
2023-08-14T20:14:55.957Z,67.52
2023-08-14T20:17:58.935Z,69.48
2023-08-14T20:21:01.992Z,68.23
2023-08-14T20:24:05.551Z,68.00
2023-08-14T20:27:09.101Z,67.97
2023-08-14T20:30:12.733Z,68.20
2023-08-14T20:33:16.134Z,68.21
2023-08-14T20:36:23.319Z,68.43
2023-08-14T20:39:28.886Z,68.45
2023-08-14T20:42:32.018Z,68.59
2023-08-14T20:45:37.804Z,68.41
2023-08-14T20:48:40.982Z,68.47
2023-08-14T20:51:44.029Z,68.69
2023-08-14T20:54:46.986Z,68.53
2023-08-14T20:57:49.941Z,68.68
2023-08-14T21:00:53.240Z,68.73
2023-08-14T21:03:56.296Z,68.90
2023-08-14T21:06:59.392Z,68.91
2023-08-14T21:10:02.481Z,68.93
2023-08-14T21:13:05.843Z,69.10
2023-08-14T21:16:09.154Z,69.37
2023-08-14T21:19:12.960Z,69.26
2023-08-14T21:22:16.367Z,69.30
2023-08-14T21:25:19.480Z,69.45
2023-08-14T21:28:22.613Z,69.79
2023-08-14T21:31:25.712Z,69.48
2023-08-14T21:34:30.600Z,69.26
2023-08-14T21:37:34.020Z,69.20
2023-08-14T21:40:40.328Z,68.98
2023-08-14T21:43:43.443Z,69.01
2023-08-14T21:46:46.415Z,68.95
2023-08-14T21:49:49.549Z,68.96
2023-08-14T21:52:52.476Z,69.11
2023-08-14T21:55:55.367Z,69.04
2023-08-14T21:58:58.408Z,69.01
2023-08-14T22:02:01.350Z,69.10
2023-08-14T22:05:04.651Z,68.92
2023-08-14T22:08:07.646Z,69.24
2023-08-14T22:11:11.255Z,69.34
2023-08-14T22:14:14.180Z,69.75
2023-08-14T22:17:17.341Z,69.92
2023-08-14T22:20:20.537Z,70.26
2023-08-14T22:23:23.457Z,70.32
2023-08-14T22:26:26.350Z,70.28
2023-08-14T22:29:29.219Z,70.67
2023-08-14T22:32:32.369Z,70.90
2023-08-14T22:35:35.267Z,71.04
2023-08-14T22:38:39.022Z,70.60
2023-08-14T22:41:41.922Z,70.99
2023-08-14T22:44:44.913Z,70.76
2023-08-14T22:47:50.415Z,71.10
2023-08-14T22:50:54.895Z,71.05
2023-08-14T22:53:58.396Z,71.04
2023-08-14T22:57:03.618Z,71.20
2023-08-14T23:00:10.063Z,71.85
2023-08-14T23:03:13.110Z,71.26
2023-08-14T23:06:16.203Z,71.31
2023-08-14T23:09:19.588Z,71.36
2023-08-14T23:12:22.592Z,71.00
2023-08-14T23:15:25.544Z,70.78
2023-08-14T23:18:28.655Z,70.89
2023-08-14T23:21:31.563Z,70.80
2023-08-14T23:24:34.450Z,70.46
2023-08-14T23:27:38.228Z,70.21
2023-08-14T23:30:41.669Z,70.38
2023-08-14T23:33:45.053Z,70.11
2023-08-14T23:36:48.276Z,69.76
2023-08-14T23:39:51.152Z,69.61
2023-08-14T23:42:54.055Z,69.61
2023-08-14T23:45:56.949Z,69.52
2023-08-14T23:48:59.905Z,69.49
2023-08-14T23:52:03.375Z,69.62
2023-08-14T23:55:07.074Z,69.69
2023-08-14T23:58:10.197Z,69.77
